Overview Statistics Trail Chart Weather Telemetry Raw packets
 

This is the latest recevied weather packets stored in our database for station/object K5IDL. If no packets are shown the sender has not sent any weather packets the latest 10 day(s).

<< 104 105 106 107 108 109 110 >>
Time Temp. Humidity Pressure Rain* Wind** Luminosity Snow
1787924683 29.44° C 66% 1019.3 hPa 0 mm - 131 W/m² -
1787924378 30° C 66% 1019.2 hPa 0 mm - 119 W/m² -
1787924073 29.44° C 67% 1019.3 hPa 0 mm - 108 W/m² -
1787923767 29.44° C 66% 1019.2 hPa 0 mm - 98 W/m² -
1787923463 29.44° C 65% 1019.3 hPa 0 mm - 89 W/m² -
1787923158 28.89° C 67% 1019.3 hPa 0 mm - 81 W/m² -
1787922853 28.33° C 67% 1019.2 hPa 0 mm - 72 W/m² -
1787922552 28.33° C 69% 1019.3 hPa 0 mm - 65 W/m² -
1787922252 30° C 66% 1019.2 hPa 0 mm - 57 W/m² -
1787921949 29.44° C 66% 1019.1 hPa 0 mm - 49 W/m² -
1787921644 27.78° C 70% 1019 hPa 0 mm - 42 W/m² -
1787921343 27.78° C 70% 1018.7 hPa 0 mm - 36 W/m² -
1787921039 27.78° C 71% 1018.9 hPa 0 mm - 30 W/m² -
1787920734 26.67° C 73% 1018.7 hPa 0 mm - 25 W/m² -
1787920434 26.11° C 74% 1018.6 hPa 0 mm - 21 W/m² -
1787920131 25° C 77% 1018.5 hPa 0 mm - 17 W/m² -
1787919826 25° C 78% 1018.5 hPa 0 mm - 12 W/m² -
1787919525 25° C 78% 1018.7 hPa 0 mm - 9 W/m² -
1787919222 25° C 78% 1018.6 hPa 0 mm - 7 W/m² -
1787918921 25° C 78% 1018.4 hPa 0 mm - 5 W/m² -
1787918617 25° C 78% 1018.5 hPa 0 mm - 3 W/m² -
1787918314 25° C 78% 1018.3 hPa 0 mm - 2 W/m² -
1787918014 25° C 78% 1018.2 hPa 0 mm - 1 W/m² -
1787917709 25° C 78% 1018.4 hPa 0 mm - 0 W/m² -
1787917406 25° C 78% 1018.2 hPa 0 mm - 0 W/m² -

* Rain latest hour (hover to see other rain measurements)
** Current wind speed in m/s (hover to see current wind gust speed)